< < Back
Terminal Aerodrome Forecast


Current Version              Previous Versions:   1  2  3  4  5  6  7  8  9  

Terminal Aerodrome Forecast

687
FTAK31 PAJN 012300
TAFAHN
TAF
PAHN 012326Z 0200/0224 14008KT P6SM SKC
     FM020900 VRB03KT P6SM SKC
     FM021900 14008KT P6SM SKC
      AMD LTD TO CLD VIS AND WIND=

Latest METAR

971
SAUS70 KWBC 020400
MTRAHN
METAR KAHN 020351Z AUTO 07008KT 10SM OVC013 19/17 A3010 RMK AO2 SLP186
T01940172


USA.gov is the U.S. government's official web portal to all federal, state and local government web resources and services.